Parksville, Canada
Current Conditions -  °F | °C
As of 3:00 PM on Sunday 21 Dec 2014 (Local Time) from CYCD Reporting Station
Broken Clouds Broken Clouds  
Wind Chill: 46°   Ceiling: 10000
Heat Index: 48°   Visibility: 20mi
Dew Point: 46°   Wind: 5mph
Humidity: 93%   Direction: 280°W
Pressure: 29.93"   Gusts: NA
Location:  49.32°N, 124.31°W
Report Text: CYCD 212300Z 28004KT 250V010 20SM FEW040 BKN100 BKN240 09/08 A2993 RMK SC1AC5CI1 PRESRR SLP135
Loading
Personal Weather Stations






























Interactive Weather Map New forecast layout! Learn more

10-Day Weather Forecast

Advertisements
Track Severe Weather on mobile